sensor_id;sensor_type;location;lat;lon;timestamp;pressure;altitude;pressure_sealevel;temperature;humidity
75996;BME280;64681;49.738;9.004;2022-11-20T00:00:45;99044.06;;;3.53;80.29
75996;BME280;64681;49.738;9.004;2022-11-20T00:03:12;99037.44;;;3.55;80.23
75996;BME280;64681;49.738;9.004;2022-11-20T00:05:38;99031.03;;;3.42;80.45
75996;BME280;64681;49.738;9.004;2022-11-20T00:08:04;99030.72;;;3.63;79.97
75996;BME280;64681;49.738;9.004;2022-11-20T00:10:29;99031.03;;;3.89;78.89
75996;BME280;64681;49.738;9.004;2022-11-20T00:12:55;99027.00;;;3.78;79.02
75996;BME280;64681;49.738;9.004;2022-11-20T00:15:22;99029.75;;;3.73;79.75
75996;BME280;64681;49.738;9.004;2022-11-20T00:17:48;99034.22;;;3.72;79.47
75996;BME280;64681;49.738;9.004;2022-11-20T00:20:14;99033.28;;;3.82;78.88
75996;BME280;64681;49.738;9.004;2022-11-20T00:22:39;99035.00;;;3.59;78.26
75996;BME280;64681;49.738;9.004;2022-11-20T00:25:05;99035.28;;;3.57;78.98
75996;BME280;64681;49.738;9.004;2022-11-20T00:27:31;99017.84;;;3.42;78.54
75996;BME280;64681;49.738;9.004;2022-11-20T00:29:56;99028.09;;;3.30;79.09
75996;BME280;64681;49.738;9.004;2022-11-20T00:32:22;99027.44;;;3.38;79.20
75996;BME280;64681;49.738;9.004;2022-11-20T00:34:48;99023.06;;;3.61;78.24
75996;BME280;64681;49.738;9.004;2022-11-20T00:37:13;99017.31;;;3.59;77.75
75996;BME280;64681;49.738;9.004;2022-11-20T00:39:39;99014.66;;;3.12;78.56
75996;BME280;64681;49.738;9.004;2022-11-20T00:42:04;99012.06;;;3.26;79.13
75996;BME280;64681;49.738;9.004;2022-11-20T00:44:30;99015.66;;;3.30;78.57
75996;BME280;64681;49.738;9.004;2022-11-20T00:47:07;99021.09;;;3.39;78.70
75996;BME280;64681;49.738;9.004;2022-11-20T00:49:34;99014.25;;;3.38;79.11
75996;BME280;64681;49.738;9.004;2022-11-20T00:52:00;99014.44;;;3.42;78.94
75996;BME280;64681;49.738;9.004;2022-11-20T00:54:25;99023.22;;;3.37;78.76
75996;BME280;64681;49.738;9.004;2022-11-20T00:56:53;99015.41;;;3.32;78.81
75996;BME280;64681;49.738;9.004;2022-11-20T00:59:19;99016.53;;;3.26;79.00
75996;BME280;64681;49.738;9.004;2022-11-20T01:01:44;99024.78;;;3.38;79.18
75996;BME280;64681;49.738;9.004;2022-11-20T01:04:10;99021.28;;;3.43;78.49
75996;BME280;64681;49.738;9.004;2022-11-20T01:06:37;99014.28;;;3.19;78.96
75996;BME280;64681;49.738;9.004;2022-11-20T01:09:06;99016.88;;;3.38;79.18
75996;BME280;64681;49.738;9.004;2022-11-20T01:11:36;99016.38;;;3.36;79.05
75996;BME280;64681;49.738;9.004;2022-11-20T01:14:04;99020.09;;;3.35;79.45
75996;BME280;64681;49.738;9.004;2022-11-20T01:16:33;99021.34;;;3.38;79.33
75996;BME280;64681;49.738;9.004;2022-11-20T01:19:01;99012.47;;;3.33;79.02
75996;BME280;64681;49.738;9.004;2022-11-20T01:21:30;99017.28;;;2.60;80.38
75996;BME280;64681;49.738;9.004;2022-11-20T01:23:57;99018.16;;;2.89;80.34
75996;BME280;64681;49.738;9.004;2022-11-20T01:26:25;99020.59;;;2.85;79.36
75996;BME280;64681;49.738;9.004;2022-11-20T01:28:51;99015.13;;;2.62;80.25
75996;BME280;64681;49.738;9.004;2022-11-20T01:31:21;99014.63;;;2.79;80.99
75996;BME280;64681;49.738;9.004;2022-11-20T01:33:50;99020.88;;;3.03;80.55
75996;BME280;64681;49.738;9.004;2022-11-20T01:36:17;99022.97;;;2.87;80.63
75996;BME280;64681;49.738;9.004;2022-11-20T01:38:43;99009.16;;;3.09;80.26
75996;BME280;64681;49.738;9.004;2022-11-20T01:41:11;99011.84;;;3.23;79.73
75996;BME280;64681;49.738;9.004;2022-11-20T01:43:57;99006.78;;;3.26;79.79
75996;BME280;64681;49.738;9.004;2022-11-20T01:46:23;99009.91;;;3.28;80.12
75996;BME280;64681;49.738;9.004;2022-11-20T01:51:44;99001.03;;;3.38;80.00
75996;BME280;64681;49.738;9.004;2022-11-20T01:54:22;98994.09;;;2.76;80.20
75996;BME280;64681;49.738;9.004;2022-11-20T01:56:54;98992.94;;;2.82;81.20
75996;BME280;64681;49.738;9.004;2022-11-20T01:59:24;98997.28;;;2.92;80.48
75996;BME280;64681;49.738;9.004;2022-11-20T02:01:52;98987.19;;;3.13;80.54
75996;BME280;64681;49.738;9.004;2022-11-20T02:04:18;98993.09;;;3.24;80.11
75996;BME280;64681;49.738;9.004;2022-11-20T02:06:50;98988.25;;;3.45;79.55
75996;BME280;64681;49.738;9.004;2022-11-20T02:09:18;98987.66;;;3.62;79.11
75996;BME280;64681;49.738;9.004;2022-11-20T02:11:44;98988.16;;;3.64;79.31
75996;BME280;64681;49.738;9.004;2022-11-20T02:14:10;98985.63;;;3.59;79.62
75996;BME280;64681;49.738;9.004;2022-11-20T02:16:46;98989.97;;;3.36;80.05
75996;BME280;64681;49.738;9.004;2022-11-20T02:19:22;98994.84;;;3.29;80.11
75996;BME280;64681;49.738;9.004;2022-11-20T02:24:26;98990.72;;;3.56;80.05
75996;BME280;64681;49.738;9.004;2022-11-20T02:27:06;98988.81;;;3.42;79.98
75996;BME280;64681;49.738;9.004;2022-11-20T02:29:39;98975.53;;;3.33;80.33
75996;BME280;64681;49.738;9.004;2022-11-20T02:32:25;98978.34;;;3.37;80.37
75996;BME280;64681;49.738;9.004;2022-11-20T02:34:51;98970.19;;;3.20;80.74
75996;BME280;64681;49.738;9.004;2022-11-20T02:37:18;98972.59;;;3.35;80.51
75996;BME280;64681;49.738;9.004;2022-11-20T02:39:46;98979.63;;;3.40;80.77
75996;BME280;64681;49.738;9.004;2022-11-20T02:42:13;98974.25;;;3.45;80.32
75996;BME280;64681;49.738;9.004;2022-11-20T02:44:39;98975.56;;;3.47;80.17
75996;BME280;64681;49.738;9.004;2022-11-20T02:47:05;98971.72;;;3.40;80.05
75996;BME280;64681;49.738;9.004;2022-11-20T02:49:30;98966.53;;;3.01;81.08
75996;BME280;64681;49.738;9.004;2022-11-20T02:51:56;98952.69;;;2.77;81.88
75996;BME280;64681;49.738;9.004;2022-11-20T02:54:22;98960.78;;;2.99;82.01
75996;BME280;64681;49.738;9.004;2022-11-20T02:56:48;98964.13;;;3.05;81.88
75996;BME280;64681;49.738;9.004;2022-11-20T02:59:13;98952.13;;;3.27;81.49
75996;BME280;64681;49.738;9.004;2022-11-20T03:01:39;98959.22;;;3.45;80.98
75996;BME280;64681;49.738;9.004;2022-11-20T03:04:04;98957.56;;;3.63;80.48
75996;BME280;64681;49.738;9.004;2022-11-20T03:06:30;98965.75;;;3.76;80.00
75996;BME280;64681;49.738;9.004;2022-11-20T03:08:55;98961.09;;;3.73;80.15
75996;BME280;64681;49.738;9.004;2022-11-20T03:11:21;98966.34;;;3.59;80.32
75996;BME280;64681;49.738;9.004;2022-11-20T03:13:46;98959.03;;;3.70;79.83
75996;BME280;64681;49.738;9.004;2022-11-20T03:16:15;98969.31;;;3.10;81.23
75996;BME280;64681;49.738;9.004;2022-11-20T03:18:42;98964.78;;;3.58;79.66
75996;BME280;64681;49.738;9.004;2022-11-20T03:21:09;98964.69;;;3.49;79.18
75996;BME280;64681;49.738;9.004;2022-11-20T03:23:37;98969.09;;;2.74;81.85
75996;BME280;64681;49.738;9.004;2022-11-20T03:26:10;98963.09;;;2.87;82.46
75996;BME280;64681;49.738;9.004;2022-11-20T03:28:36;98973.41;;;3.03;82.02
75996;BME280;64681;49.738;9.004;2022-11-20T03:31:09;98956.59;;;2.98;82.19
75996;BME280;64681;49.738;9.004;2022-11-20T03:33:35;98964.28;;;2.95;82.65
75996;BME280;64681;49.738;9.004;2022-11-20T03:36:05;98965.63;;;3.25;81.95
75996;BME280;64681;49.738;9.004;2022-11-20T03:38:32;98972.88;;;3.33;81.69
75996;BME280;64681;49.738;9.004;2022-11-20T03:41:02;98975.38;;;3.72;81.03
75996;BME280;64681;49.738;9.004;2022-11-20T03:43:29;98970.84;;;3.86;80.32
75996;BME280;64681;49.738;9.004;2022-11-20T03:45:55;98968.13;;;3.77;80.40
75996;BME280;64681;49.738;9.004;2022-11-20T03:48:20;98961.44;;;4.22;78.20
75996;BME280;64681;49.738;9.004;2022-11-20T03:50:46;98973.00;;;3.98;78.93
75996;BME280;64681;49.738;9.004;2022-11-20T03:53:16;98963.63;;;3.92;79.37
75996;BME280;64681;49.738;9.004;2022-11-20T03:55:42;98963.44;;;3.88;80.10
75996;BME280;64681;49.738;9.004;2022-11-20T03:58:08;98963.03;;;3.95;80.10
75996;BME280;64681;49.738;9.004;2022-11-20T04:00:34;98951.09;;;3.98;80.05
75996;BME280;64681;49.738;9.004;2022-11-20T04:03:00;98963.69;;;4.01;79.83
75996;BME280;64681;49.738;9.004;2022-11-20T04:05:26;98955.78;;;4.15;78.61
75996;BME280;64681;49.738;9.004;2022-11-20T04:07:52;98963.78;;;4.23;78.24
75996;BME280;64681;49.738;9.004;2022-11-20T04:10:17;98965.84;;;4.12;77.86
75996;BME280;64681;49.738;9.004;2022-11-20T04:12:43;98968.72;;;3.88;78.89
75996;BME280;64681;49.738;9.004;2022-11-20T04:15:09;98967.91;;;3.88;79.51
75996;BME280;64681;49.738;9.004;2022-11-20T04:17:35;98964.22;;;3.75;79.78
75996;BME280;64681;49.738;9.004;2022-11-20T04:20:00;98954.72;;;3.74;79.49
75996;BME280;64681;49.738;9.004;2022-11-20T04:22:26;98966.88;;;3.75;80.21
75996;BME280;64681;49.738;9.004;2022-11-20T04:24:51;98958.22;;;4.11;78.42
75996;BME280;64681;49.738;9.004;2022-11-20T04:27:17;98959.13;;;3.51;80.17
75996;BME280;64681;49.738;9.004;2022-11-20T04:29:43;98955.50;;;3.60;81.06
75996;BME280;64681;49.738;9.004;2022-11-20T04:32:08;98955.88;;;3.95;78.79
75996;BME280;64681;49.738;9.004;2022-11-20T04:34:34;98955.69;;;4.06;78.74
75996;BME280;64681;49.738;9.004;2022-11-20T04:37:00;98964.09;;;3.66;79.93
75996;BME280;64681;49.738;9.004;2022-11-20T04:39:25;98953.66;;;3.75;80.02
75996;BME280;64681;49.738;9.004;2022-11-20T04:41:51;98946.13;;;3.82;80.22
75996;BME280;64681;49.738;9.004;2022-11-20T04:44:36;98951.69;;;4.08;79.23
75996;BME280;64681;49.738;9.004;2022-11-20T04:47:02;98944.56;;;3.67;80.05
75996;BME280;64681;49.738;9.004;2022-11-20T04:49:27;98948.47;;;3.98;79.91
75996;BME280;64681;49.738;9.004;2022-11-20T04:51:53;98937.66;;;4.08;78.72
75996;BME280;64681;49.738;9.004;2022-11-20T04:54:19;98943.81;;;4.17;77.86
75996;BME280;64681;49.738;9.004;2022-11-20T04:56:48;98942.25;;;4.16;78.31
75996;BME280;64681;49.738;9.004;2022-11-20T04:59:14;98943.28;;;3.78;79.88
75996;BME280;64681;49.738;9.004;2022-11-20T05:01:39;98942.78;;;3.62;80.84
75996;BME280;64681;49.738;9.004;2022-11-20T05:04:05;98938.09;;;3.87;80.21
75996;BME280;64681;49.738;9.004;2022-11-20T05:06:31;98932.50;;;4.03;79.38
75996;BME280;64681;49.738;9.004;2022-11-20T05:08:57;98930.94;;;4.02;79.65
75996;BME280;64681;49.738;9.004;2022-11-20T05:11:22;98926.09;;;4.18;79.18
75996;BME280;64681;49.738;9.004;2022-11-20T05:13:49;98924.31;;;4.27;78.38
75996;BME280;64681;49.738;9.004;2022-11-20T05:16:18;98921.91;;;4.17;79.43
75996;BME280;64681;49.738;9.004;2022-11-20T05:18:44;98928.47;;;4.19;79.21
75996;BME280;64681;49.738;9.004;2022-11-20T05:21:11;98927.41;;;4.06;79.69
75996;BME280;64681;49.738;9.004;2022-11-20T05:23:38;98924.63;;;4.25;79.61
75996;BME280;64681;49.738;9.004;2022-11-20T05:26:06;98922.88;;;4.21;79.67
75996;BME280;64681;49.738;9.004;2022-11-20T05:28:33;98901.69;;;4.35;78.45
75996;BME280;64681;49.738;9.004;2022-11-20T05:31:10;98923.16;;;4.56;78.04
75996;BME280;64681;49.738;9.004;2022-11-20T05:33:36;98924.41;;;4.58;77.09
75996;BME280;64681;49.738;9.004;2022-11-20T05:36:03;98926.25;;;4.35;78.44
75996;BME280;64681;49.738;9.004;2022-11-20T05:38:29;98923.53;;;4.26;79.02
75996;BME280;64681;49.738;9.004;2022-11-20T05:40:55;98923.25;;;4.51;77.82
75996;BME280;64681;49.738;9.004;2022-11-20T05:43:20;98923.97;;;4.42;77.91
75996;BME280;64681;49.738;9.004;2022-11-20T05:45:53;98924.28;;;4.41;78.09
75996;BME280;64681;49.738;9.004;2022-11-20T05:48:19;98926.44;;;4.39;78.51
75996;BME280;64681;49.738;9.004;2022-11-20T05:50:44;98931.44;;;4.40;78.62
75996;BME280;64681;49.738;9.004;2022-11-20T05:53:10;98931.47;;;4.26;79.00
75996;BME280;64681;49.738;9.004;2022-11-20T05:55:35;98926.44;;;4.02;79.55
75996;BME280;64681;49.738;9.004;2022-11-20T05:58:01;98920.69;;;3.44;81.70
75996;BME280;64681;49.738;9.004;2022-11-20T06:00:26;98915.91;;;3.60;81.84
75996;BME280;64681;49.738;9.004;2022-11-20T06:02:52;98923.50;;;4.04;80.08
75996;BME280;64681;49.738;9.004;2022-11-20T06:05:17;98918.09;;;4.09;79.99
75996;BME280;64681;49.738;9.004;2022-11-20T06:07:43;98918.28;;;4.12;79.86
75996;BME280;64681;49.738;9.004;2022-11-20T06:10:09;98920.72;;;4.23;79.71
75996;BME280;64681;49.738;9.004;2022-11-20T06:12:34;98909.25;;;4.27;79.60
75996;BME280;64681;49.738;9.004;2022-11-20T06:15:00;98921.31;;;4.42;79.39
75996;BME280;64681;49.738;9.004;2022-11-20T06:17:26;98919.41;;;4.57;78.64
75996;BME280;64681;49.738;9.004;2022-11-20T06:19:51;98909.72;;;4.52;78.77
75996;BME280;64681;49.738;9.004;2022-11-20T06:22:17;98910.66;;;4.48;79.09
75996;BME280;64681;49.738;9.004;2022-11-20T06:24:43;98904.94;;;4.54;78.90
75996;BME280;64681;49.738;9.004;2022-11-20T06:27:08;98909.16;;;4.55;78.86
75996;BME280;64681;49.738;9.004;2022-11-20T06:29:34;98910.66;;;4.70;77.94
75996;BME280;64681;49.738;9.004;2022-11-20T06:32:00;98908.06;;;4.56;78.14
75996;BME280;64681;49.738;9.004;2022-11-20T06:34:26;98914.31;;;4.60;78.01
75996;BME280;64681;49.738;9.004;2022-11-20T06:36:51;98896.81;;;4.73;77.38
75996;BME280;64681;49.738;9.004;2022-11-20T06:39:17;98879.25;;;5.00;75.59
75996;BME280;64681;49.738;9.004;2022-11-20T06:41:43;98906.31;;;4.52;77.73
75996;BME280;64681;49.738;9.004;2022-11-20T06:44:08;98899.28;;;4.47;78.44
75996;BME280;64681;49.738;9.004;2022-11-20T06:46:34;98908.84;;;4.57;78.28
75996;BME280;64681;49.738;9.004;2022-11-20T06:48:59;98907.28;;;4.56;78.27
75996;BME280;64681;49.738;9.004;2022-11-20T06:51:25;98913.81;;;4.36;79.19
75996;BME280;64681;49.738;9.004;2022-11-20T06:53:50;98908.25;;;4.60;78.87
75996;BME280;64681;49.738;9.004;2022-11-20T06:56:16;98902.94;;;4.83;77.62
75996;BME280;64681;49.738;9.004;2022-11-20T06:58:42;98926.72;;;4.74;77.87
75996;BME280;64681;49.738;9.004;2022-11-20T07:01:11;98928.53;;;4.96;77.24
75996;BME280;64681;49.738;9.004;2022-11-20T07:03:37;98931.09;;;4.79;77.04
75996;BME280;64681;49.738;9.004;2022-11-20T07:06:04;98940.94;;;4.64;78.06
75996;BME280;64681;49.738;9.004;2022-11-20T07:08:31;98936.59;;;4.46;78.24
75996;BME280;64681;49.738;9.004;2022-11-20T07:11:02;98932.25;;;4.27;78.78
75996;BME280;64681;49.738;9.004;2022-11-20T07:13:29;98941.44;;;4.30;79.00
75996;BME280;64681;49.738;9.004;2022-11-20T07:15:58;98941.28;;;4.49;78.96
75996;BME280;64681;49.738;9.004;2022-11-20T07:18:24;98944.09;;;4.52;78.60
75996;BME280;64681;49.738;9.004;2022-11-20T07:20:50;98931.59;;;4.21;79.36
75996;BME280;64681;49.738;9.004;2022-11-20T07:23:15;98943.50;;;4.33;79.79
75996;BME280;64681;49.738;9.004;2022-11-20T07:25:41;98940.72;;;4.38;79.63
75996;BME280;64681;49.738;9.004;2022-11-20T07:28:06;98938.66;;;3.98;80.61
75996;BME280;64681;49.738;9.004;2022-11-20T07:30:32;98941.47;;;4.16;80.57
75996;BME280;64681;49.738;9.004;2022-11-20T07:32:57;98941.63;;;4.33;80.05
75996;BME280;64681;49.738;9.004;2022-11-20T07:35:24;98930.59;;;4.31;80.01
75996;BME280;64681;49.738;9.004;2022-11-20T07:37:50;98933.69;;;4.33;79.73
75996;BME280;64681;49.738;9.004;2022-11-20T07:40:16;98929.00;;;4.30;79.92
75996;BME280;64681;49.738;9.004;2022-11-20T07:42:52;98937.13;;;4.34;79.96
75996;BME280;64681;49.738;9.004;2022-11-20T07:45:19;98927.28;;;4.48;79.45
75996;BME280;64681;49.738;9.004;2022-11-20T07:47:46;98931.00;;;4.47;79.82
75996;BME280;64681;49.738;9.004;2022-11-20T07:50:12;98931.91;;;4.65;79.39
75996;BME280;64681;49.738;9.004;2022-11-20T07:52:38;98929.28;;;4.65;79.42
75996;BME280;64681;49.738;9.004;2022-11-20T07:55:04;98928.56;;;4.73;79.41
75996;BME280;64681;49.738;9.004;2022-11-20T07:57:30;98935.53;;;4.92;77.90
75996;BME280;64681;49.738;9.004;2022-11-20T07:59:56;98939.97;;;4.60;78.86
75996;BME280;64681;49.738;9.004;2022-11-20T08:02:21;98934.72;;;4.46;79.81
75996;BME280;64681;49.738;9.004;2022-11-20T08:04:47;98941.78;;;4.51;80.64
75996;BME280;64681;49.738;9.004;2022-11-20T08:07:12;98934.19;;;4.58;79.58
75996;BME280;64681;49.738;9.004;2022-11-20T08:09:38;98947.34;;;4.12;80.40
75996;BME280;64681;49.738;9.004;2022-11-20T08:12:03;98949.94;;;4.40;80.43
75996;BME280;64681;49.738;9.004;2022-11-20T08:14:47;98939.09;;;4.28;79.93
75996;BME280;64681;49.738;9.004;2022-11-20T08:17:13;98950.03;;;4.35;79.97
75996;BME280;64681;49.738;9.004;2022-11-20T08:19:38;98954.13;;;4.41;79.71
75996;BME280;64681;49.738;9.004;2022-11-20T08:22:04;98968.94;;;4.65;78.75
75996;BME280;64681;49.738;9.004;2022-11-20T08:24:29;98971.59;;;4.28;80.03
75996;BME280;64681;49.738;9.004;2022-11-20T08:26:57;98964.19;;;3.33;84.55
75996;BME280;64681;49.738;9.004;2022-11-20T08:29:23;98958.25;;;3.83;82.95
75996;BME280;64681;49.738;9.004;2022-11-20T08:31:49;98958.53;;;4.46;80.05
75996;BME280;64681;49.738;9.004;2022-11-20T08:34:14;98960.38;;;3.95;81.48
75996;BME280;64681;49.738;9.004;2022-11-20T08:36:40;98975.25;;;4.05;81.85
75996;BME280;64681;49.738;9.004;2022-11-20T08:39:05;98985.31;;;4.17;81.22
75996;BME280;64681;49.738;9.004;2022-11-20T08:41:31;98975.94;;;3.83;81.94
75996;BME280;64681;49.738;9.004;2022-11-20T08:44:03;98999.31;;;4.17;81.41
75996;BME280;64681;49.738;9.004;2022-11-20T08:46:47;99004.09;;;3.73;83.13
75996;BME280;64681;49.738;9.004;2022-11-20T08:49:15;99014.75;;;3.54;84.19
75996;BME280;64681;49.738;9.004;2022-11-20T08:51:41;99001.28;;;3.56;83.22
75996;BME280;64681;49.738;9.004;2022-11-20T08:54:08;99002.53;;;3.58;83.99
75996;BME280;64681;49.738;9.004;2022-11-20T08:56:35;99008.66;;;3.40;84.60
75996;BME280;64681;49.738;9.004;2022-11-20T08:59:01;99010.44;;;3.44;85.35
75996;BME280;64681;49.738;9.004;2022-11-20T09:01:27;99006.16;;;3.48;84.76
75996;BME280;64681;49.738;9.004;2022-11-20T09:03:57;99007.69;;;3.49;85.39
75996;BME280;64681;49.738;9.004;2022-11-20T09:06:23;99013.31;;;3.90;83.92
75996;BME280;64681;49.738;9.004;2022-11-20T09:08:52;99009.97;;;4.26;82.77
75996;BME280;64681;49.738;9.004;2022-11-20T09:11:17;99004.34;;;4.55;82.61
75996;BME280;64681;49.738;9.004;2022-11-20T09:13:43;99010.06;;;4.71;80.46
75996;BME280;64681;49.738;9.004;2022-11-20T09:16:09;99008.31;;;4.16;82.60
75996;BME280;64681;49.738;9.004;2022-11-20T09:18:36;99006.59;;;4.85;81.34
75996;BME280;64681;49.738;9.004;2022-11-20T09:21:05;99004.59;;;4.90;80.46
75996;BME280;64681;49.738;9.004;2022-11-20T09:23:33;99000.06;;;5.36;78.84
75996;BME280;64681;49.738;9.004;2022-11-20T09:26:11;98997.50;;;5.22;79.52
75996;BME280;64681;49.738;9.004;2022-11-20T09:28:38;99000.25;;;5.40;79.52
75996;BME280;64681;49.738;9.004;2022-11-20T09:31:09;98993.03;;;5.63;80.15
75996;BME280;64681;49.738;9.004;2022-11-20T09:33:35;98998.81;;;6.06;77.42
75996;BME280;64681;49.738;9.004;2022-11-20T09:36:01;98994.16;;;6.11;76.15
75996;BME280;64681;49.738;9.004;2022-11-20T09:38:27;98996.81;;;5.71;78.00
75996;BME280;64681;49.738;9.004;2022-11-20T09:40:58;98997.34;;;5.50;79.32
75996;BME280;64681;49.738;9.004;2022-11-20T09:46:25;99004.06;;;5.57;79.02
75996;BME280;64681;49.738;9.004;2022-11-20T09:52:00;99005.44;;;5.85;78.61
75996;BME280;64681;49.738;9.004;2022-11-20T09:54:37;99003.56;;;5.86;78.70
75996;BME280;64681;49.738;9.004;2022-11-20T09:57:11;98997.88;;;5.70;77.96
75996;BME280;64681;49.738;9.004;2022-11-20T10:04:59;99004.25;;;5.60;79.21
75996;BME280;64681;49.738;9.004;2022-11-20T10:07:47;98992.59;;;5.70;79.28
75996;BME280;64681;49.738;9.004;2022-11-20T10:10:26;98983.22;;;5.64;79.34
75996;BME280;64681;49.738;9.004;2022-11-20T10:30:17;98970.63;;;6.36;77.32
75996;BME280;64681;49.738;9.004;2022-11-20T10:32:48;98972.19;;;6.37;78.65
75996;BME280;64681;49.738;9.004;2022-11-20T10:38:23;98961.44;;;6.16;78.16
75996;BME280;64681;49.738;9.004;2022-11-20T10:41:17;98963.94;;;6.65;77.48
75996;BME280;64681;49.738;9.004;2022-11-20T10:44:15;98967.03;;;7.02;75.92
75996;BME280;64681;49.738;9.004;2022-11-20T10:47:03;98963.75;;;6.79;77.46
75996;BME280;64681;49.738;9.004;2022-11-20T10:49:32;98976.09;;;7.01;75.56
75996;BME280;64681;49.738;9.004;2022-11-20T11:02:35;98957.50;;;6.05;78.84
75996;BME280;64681;49.738;9.004;2022-11-20T11:08:04;98965.47;;;6.22;79.85
75996;BME280;64681;49.738;9.004;2022-11-20T11:10:54;98960.84;;;6.54;78.08
75996;BME280;64681;49.738;9.004;2022-11-20T11:13:22;98957.38;;;6.45;78.56
75996;BME280;64681;49.738;9.004;2022-11-20T11:15:49;98955.94;;;6.04;79.82
75996;BME280;64681;49.738;9.004;2022-11-20T11:18:25;98950.66;;;6.12;79.69
75996;BME280;64681;49.738;9.004;2022-11-20T11:20:52;98937.25;;;6.17;80.20
75996;BME280;64681;49.738;9.004;2022-11-20T11:23:31;98936.03;;;5.75;81.74
75996;BME280;64681;49.738;9.004;2022-11-20T11:25:59;98932.09;;;6.21;80.77
75996;BME280;64681;49.738;9.004;2022-11-20T11:28:26;98924.00;;;6.35;80.10
75996;BME280;64681;49.738;9.004;2022-11-20T11:30:54;98927.25;;;6.41;79.54
75996;BME280;64681;49.738;9.004;2022-11-20T11:33:31;98925.09;;;6.34;80.00
75996;BME280;64681;49.738;9.004;2022-11-20T11:36:04;98939.59;;;6.28;79.82
75996;BME280;64681;49.738;9.004;2022-11-20T11:38:41;98936.31;;;6.31;80.64
75996;BME280;64681;49.738;9.004;2022-11-20T11:41:22;98926.03;;;6.47;80.17
75996;BME280;64681;49.738;9.004;2022-11-20T11:44:04;98922.44;;;6.60;80.70
75996;BME280;64681;49.738;9.004;2022-11-20T11:46:58;98928.47;;;6.96;78.67
75996;BME280;64681;49.738;9.004;2022-11-20T11:49:23;98922.66;;;7.03;77.50
75996;BME280;64681;49.738;9.004;2022-11-20T11:54:57;98916.34;;;6.69;78.64
75996;BME280;64681;49.738;9.004;2022-11-20T11:57:41;98913.34;;;6.88;78.83
75996;BME280;64681;49.738;9.004;2022-11-20T12:00:17;98914.00;;;6.67;78.85
75996;BME280;64681;49.738;9.004;2022-11-20T12:13:52;98902.00;;;7.17;79.49
75996;BME280;64681;49.738;9.004;2022-11-20T12:16:20;98885.50;;;7.03;79.42
75996;BME280;64681;49.738;9.004;2022-11-20T12:18:49;98902.13;;;6.82;79.53
75996;BME280;64681;49.738;9.004;2022-11-20T12:27:00;98894.25;;;7.72;79.48
75996;BME280;64681;49.738;9.004;2022-11-20T12:47:17;98895.41;;;7.32;79.88
75996;BME280;64681;49.738;9.004;2022-11-20T12:50:01;98891.97;;;7.32;79.67
75996;BME280;64681;49.738;9.004;2022-11-20T12:52:42;98891.47;;;7.38;79.70
75996;BME280;64681;49.738;9.004;2022-11-20T12:57:57;98888.91;;;7.51;79.65
75996;BME280;64681;49.738;9.004;2022-11-20T13:00:25;98885.69;;;7.36;80.09
75996;BME280;64681;49.738;9.004;2022-11-20T13:08:01;98878.19;;;7.38;79.70
75996;BME280;64681;49.738;9.004;2022-11-20T13:18:26;98881.63;;;7.39;79.63
75996;BME280;64681;49.738;9.004;2022-11-20T13:20:52;98869.06;;;7.18;80.01
75996;BME280;64681;49.738;9.004;2022-11-20T13:23:27;98863.13;;;6.65;82.68
75996;BME280;64681;49.738;9.004;2022-11-20T13:26:17;98859.38;;;7.13;81.86
75996;BME280;64681;49.738;9.004;2022-11-20T13:28:46;98858.16;;;7.41;81.12
75996;BME280;64681;49.738;9.004;2022-11-20T13:31:45;98840.91;;;7.56;80.99
75996;BME280;64681;49.738;9.004;2022-11-20T13:34:25;98846.56;;;7.75;80.47
75996;BME280;64681;49.738;9.004;2022-11-20T13:36:53;98848.63;;;7.91;78.78
75996;BME280;64681;49.738;9.004;2022-11-20T13:39:36;98827.53;;;7.73;80.27
75996;BME280;64681;49.738;9.004;2022-11-20T13:42:20;98834.84;;;7.98;79.81
75996;BME280;64681;49.738;9.004;2022-11-20T13:44:54;98824.59;;;8.08;79.75
75996;BME280;64681;49.738;9.004;2022-11-20T13:47:25;98825.16;;;8.14;79.51
75996;BME280;64681;49.738;9.004;2022-11-20T13:49:54;98823.06;;;8.20;79.07
75996;BME280;64681;49.738;9.004;2022-11-20T14:00:26;98818.75;;;8.15;79.59
75996;BME280;64681;49.738;9.004;2022-11-20T14:02:59;98821.16;;;8.08;79.54
75996;BME280;64681;49.738;9.004;2022-11-20T14:05:36;98822.38;;;8.11;79.46
75996;BME280;64681;49.738;9.004;2022-11-20T14:08:06;98818.88;;;7.98;79.86
75996;BME280;64681;49.738;9.004;2022-11-20T14:10:37;98813.91;;;8.30;77.84
75996;BME280;64681;49.738;9.004;2022-11-20T14:13:18;98801.88;;;7.90;79.30
75996;BME280;64681;49.738;9.004;2022-11-20T14:15:44;98811.31;;;7.66;79.64
75996;BME280;64681;49.738;9.004;2022-11-20T14:18:20;98809.25;;;7.42;81.09
75996;BME280;64681;49.738;9.004;2022-11-20T14:20:47;98814.16;;;7.31;81.37
75996;BME280;64681;49.738;9.004;2022-11-20T14:23:26;98806.81;;;7.07;83.33
75996;BME280;64681;49.738;9.004;2022-11-20T14:25:52;98807.91;;;7.36;82.80
75996;BME280;64681;49.738;9.004;2022-11-20T14:28:30;98804.03;;;7.24;82.67
75996;BME280;64681;49.738;9.004;2022-11-20T14:30:57;98805.38;;;7.39;82.87
75996;BME280;64681;49.738;9.004;2022-11-20T14:33:25;98805.56;;;7.34;82.60
75996;BME280;64681;49.738;9.004;2022-11-20T14:35:54;98794.44;;;7.11;83.82
75996;BME280;64681;49.738;9.004;2022-11-20T14:38:29;98792.94;;;7.52;82.43
75996;BME280;64681;49.738;9.004;2022-11-20T14:41:07;98791.91;;;7.44;82.03
75996;BME280;64681;49.738;9.004;2022-11-20T14:43:33;98798.19;;;7.61;81.66
75996;BME280;64681;49.738;9.004;2022-11-20T14:46:05;98791.84;;;7.74;81.72
75996;BME280;64681;49.738;9.004;2022-11-20T14:49:12;98788.03;;;7.63;81.13
75996;BME280;64681;49.738;9.004;2022-11-20T14:51:35;98779.50;;;7.27;82.32
75996;BME280;64681;49.738;9.004;2022-11-20T14:54:17;98783.03;;;7.40;82.10
75996;BME280;64681;49.738;9.004;2022-11-20T14:56:57;98780.53;;;7.65;81.19
75996;BME280;64681;49.738;9.004;2022-11-20T14:59:28;98782.66;;;7.72;81.48
75996;BME280;64681;49.738;9.004;2022-11-20T15:04:24;98776.44;;;7.68;81.04
75996;BME280;64681;49.738;9.004;2022-11-20T15:06:52;98777.94;;;7.26;81.91
75996;BME280;64681;49.738;9.004;2022-11-20T15:09:18;98765.19;;;7.41;81.57
75996;BME280;64681;49.738;9.004;2022-11-20T15:11:59;98778.94;;;7.43;81.39
75996;BME280;64681;49.738;9.004;2022-11-20T15:14:28;98774.69;;;7.51;81.61